sensor_id;sensor_type;location;lat;lon;timestamp;P1;durP1;ratioP1;P2;durP2;ratioP2
47669;SDS011;33408;52.062;11.722;2023-09-12T00:02:00;16.55;;;6.95;;
47669;SDS011;33408;52.062;11.722;2023-09-12T00:04:26;15.25;;;7.25;;
47669;SDS011;33408;52.062;11.722;2023-09-12T00:06:54;12.05;;;6.40;;
47669;SDS011;33408;52.062;11.722;2023-09-12T00:09:21;18.52;;;7.30;;
47669;SDS011;33408;52.062;11.722;2023-09-12T00:11:47;12.07;;;7.13;;
47669;SDS011;33408;52.062;11.722;2023-09-12T00:14:16;18.38;;;6.97;;
47669;SDS011;33408;52.062;11.722;2023-09-12T00:16:43;13.15;;;6.95;;
47669;SDS011;33408;52.062;11.722;2023-09-12T00:19:10;16.40;;;7.55;;
47669;SDS011;33408;52.062;11.722;2023-09-12T00:21:36;18.80;;;7.93;;
47669;SDS011;33408;52.062;11.722;2023-09-12T00:24:03;13.15;;;6.93;;
47669;SDS011;33408;52.062;11.722;2023-09-12T00:26:30;17.88;;;7.43;;
47669;SDS011;33408;52.062;11.722;2023-09-12T00:28:58;15.57;;;7.40;;
47669;SDS011;33408;52.062;11.722;2023-09-12T00:31:26;16.52;;;6.45;;
47669;SDS011;33408;52.062;11.722;2023-09-12T00:33:52;12.82;;;6.78;;
47669;SDS011;33408;52.062;11.722;2023-09-12T00:36:19;13.45;;;6.78;;
47669;SDS011;33408;52.062;11.722;2023-09-12T00:38:46;16.63;;;7.22;;
47669;SDS011;33408;52.062;11.722;2023-09-12T00:41:12;16.92;;;6.38;;
47669;SDS011;33408;52.062;11.722;2023-09-12T00:43:39;13.32;;;6.82;;
47669;SDS011;33408;52.062;11.722;2023-09-12T00:46:05;16.13;;;7.78;;
47669;SDS011;33408;52.062;11.722;2023-09-12T00:48:33;16.45;;;6.88;;
47669;SDS011;33408;52.062;11.722;2023-09-12T00:51:01;11.93;;;7.00;;
47669;SDS011;33408;52.062;11.722;2023-09-12T00:53:28;13.18;;;6.50;;
47669;SDS011;33408;52.062;11.722;2023-09-12T00:55:56;12.32;;;6.53;;
47669;SDS011;33408;52.062;11.722;2023-09-12T00:58:24;11.30;;;6.78;;
47669;SDS011;33408;52.062;11.722;2023-09-12T01:00:53;14.05;;;6.63;;
47669;SDS011;33408;52.062;11.722;2023-09-12T01:03:20;15.02;;;7.35;;
47669;SDS011;33408;52.062;11.722;2023-09-12T01:05:47;15.43;;;6.95;;
47669;SDS011;33408;52.062;11.722;2023-09-12T01:08:15;21.58;;;6.97;;
47669;SDS011;33408;52.062;11.722;2023-09-12T01:10:41;15.55;;;6.60;;
47669;SDS011;33408;52.062;11.722;2023-09-12T01:13:11;13.73;;;6.05;;
47669;SDS011;33408;52.062;11.722;2023-09-12T01:15:38;16.80;;;7.07;;
47669;SDS011;33408;52.062;11.722;2023-09-12T01:18:05;15.60;;;6.22;;
47669;SDS011;33408;52.062;11.722;2023-09-12T01:20:32;12.88;;;6.85;;
47669;SDS011;33408;52.062;11.722;2023-09-12T01:29:01;15.23;;;7.05;;
47669;SDS011;33408;52.062;11.722;2023-09-12T01:31:32;15.98;;;7.63;;
47669;SDS011;33408;52.062;11.722;2023-09-12T01:34:07;15.55;;;7.35;;
47669;SDS011;33408;52.062;11.722;2023-09-12T01:36:35;15.35;;;6.55;;
47669;SDS011;33408;52.062;11.722;2023-09-12T01:39:01;17.95;;;8.07;;
47669;SDS011;33408;52.062;11.722;2023-09-12T01:41:29;12.18;;;7.03;;
47669;SDS011;33408;52.062;11.722;2023-09-12T01:43:58;10.77;;;6.70;;
47669;SDS011;33408;52.062;11.722;2023-09-12T01:46:28;16.83;;;7.20;;
47669;SDS011;33408;52.062;11.722;2023-09-12T01:48:57;14.90;;;7.05;;
47669;SDS011;33408;52.062;11.722;2023-09-12T01:51:25;14.65;;;6.40;;
47669;SDS011;33408;52.062;11.722;2023-09-12T01:53:54;15.70;;;6.60;;
47669;SDS011;33408;52.062;11.722;2023-09-12T01:56:21;22.08;;;6.72;;
47669;SDS011;33408;52.062;11.722;2023-09-12T01:58:48;15.90;;;6.88;;
47669;SDS011;33408;52.062;11.722;2023-09-12T02:01:16;17.92;;;6.93;;
47669;SDS011;33408;52.062;11.722;2023-09-12T02:03:43;20.08;;;6.88;;
47669;SDS011;33408;52.062;11.722;2023-09-12T02:06:10;14.63;;;7.93;;
47669;SDS011;33408;52.062;11.722;2023-09-12T02:08:36;15.82;;;8.32;;
47669;SDS011;33408;52.062;11.722;2023-09-12T02:11:03;24.08;;;8.40;;
47669;SDS011;33408;52.062;11.722;2023-09-12T02:13:29;15.30;;;8.60;;
47669;SDS011;33408;52.062;11.722;2023-09-12T02:15:59;19.08;;;7.75;;
47669;SDS011;33408;52.062;11.722;2023-09-12T02:18:27;17.58;;;8.05;;
47669;SDS011;33408;52.062;11.722;2023-09-12T02:20:53;17.70;;;8.27;;
47669;SDS011;33408;52.062;11.722;2023-09-12T02:23:21;16.85;;;7.50;;
47669;SDS011;33408;52.062;11.722;2023-09-12T02:25:48;15.35;;;7.82;;
47669;SDS011;33408;52.062;11.722;2023-09-12T02:28:14;15.00;;;7.30;;
47669;SDS011;33408;52.062;11.722;2023-09-12T02:30:41;19.42;;;8.30;;
47669;SDS011;33408;52.062;11.722;2023-09-12T02:33:07;17.20;;;8.02;;
47669;SDS011;33408;52.062;11.722;2023-09-12T02:35:35;29.13;;;8.80;;
47669;SDS011;33408;52.062;11.722;2023-09-12T02:38:02;15.77;;;8.15;;
47669;SDS011;33408;52.062;11.722;2023-09-12T02:40:29;14.90;;;8.05;;
47669;SDS011;33408;52.062;11.722;2023-09-12T02:42:55;14.32;;;8.18;;
47669;SDS011;33408;52.062;11.722;2023-09-12T02:45:22;16.15;;;8.52;;
47669;SDS011;33408;52.062;11.722;2023-09-12T02:47:49;10.40;;;7.70;;
47669;SDS011;33408;52.062;11.722;2023-09-12T02:50:15;14.80;;;8.60;;
47669;SDS011;33408;52.062;11.722;2023-09-12T02:52:43;19.35;;;9.43;;
47669;SDS011;33408;52.062;11.722;2023-09-12T02:55:10;16.98;;;8.02;;
47669;SDS011;33408;52.062;11.722;2023-09-12T02:57:36;16.90;;;8.75;;
47669;SDS011;33408;52.062;11.722;2023-09-12T03:00:03;16.88;;;9.00;;
47669;SDS011;33408;52.062;11.722;2023-09-12T03:02:33;17.15;;;9.38;;
47669;SDS011;33408;52.062;11.722;2023-09-12T03:04:59;20.63;;;8.77;;
47669;SDS011;33408;52.062;11.722;2023-09-12T03:07:28;14.95;;;8.68;;
47669;SDS011;33408;52.062;11.722;2023-09-12T03:09:57;21.60;;;9.15;;
47669;SDS011;33408;52.062;11.722;2023-09-12T03:12:23;15.02;;;8.32;;
47669;SDS011;33408;52.062;11.722;2023-09-12T03:14:50;17.25;;;8.30;;
47669;SDS011;33408;52.062;11.722;2023-09-12T03:17:16;17.60;;;8.23;;
47669;SDS011;33408;52.062;11.722;2023-09-12T03:19:43;16.70;;;9.57;;
47669;SDS011;33408;52.062;11.722;2023-09-12T03:22:09;17.05;;;8.93;;
47669;SDS011;33408;52.062;11.722;2023-09-12T03:24:36;15.40;;;8.80;;
47669;SDS011;33408;52.062;11.722;2023-09-12T03:27:04;17.63;;;8.88;;
47669;SDS011;33408;52.062;11.722;2023-09-12T03:29:31;20.95;;;9.20;;
47669;SDS011;33408;52.062;11.722;2023-09-12T03:31:57;16.02;;;8.73;;
47669;SDS011;33408;52.062;11.722;2023-09-12T03:34:24;14.93;;;8.43;;
47669;SDS011;33408;52.062;11.722;2023-09-12T03:36:51;19.90;;;8.90;;
47669;SDS011;33408;52.062;11.722;2023-09-12T03:39:17;19.83;;;9.15;;
47669;SDS011;33408;52.062;11.722;2023-09-12T03:41:44;41.63;;;9.48;;
47669;SDS011;33408;52.062;11.722;2023-09-12T03:44:12;22.45;;;9.35;;
47669;SDS011;33408;52.062;11.722;2023-09-12T03:46:38;21.35;;;9.52;;
47669;SDS011;33408;52.062;11.722;2023-09-12T03:49:05;21.83;;;8.85;;
47669;SDS011;33408;52.062;11.722;2023-09-12T03:51:33;14.55;;;8.82;;
47669;SDS011;33408;52.062;11.722;2023-09-12T03:54:03;14.00;;;8.38;;
47669;SDS011;33408;52.062;11.722;2023-09-12T03:56:29;19.73;;;9.27;;
47669;SDS011;33408;52.062;11.722;2023-09-12T03:58:56;18.55;;;9.07;;
47669;SDS011;33408;52.062;11.722;2023-09-12T04:01:26;18.15;;;9.30;;
47669;SDS011;33408;52.062;11.722;2023-09-12T04:03:54;19.17;;;9.05;;
47669;SDS011;33408;52.062;11.722;2023-09-12T04:06:20;14.68;;;9.50;;
47669;SDS011;33408;52.062;11.722;2023-09-12T04:08:47;23.05;;;9.20;;
47669;SDS011;33408;52.062;11.722;2023-09-12T04:11:14;16.33;;;8.43;;
47669;SDS011;33408;52.062;11.722;2023-09-12T04:13:40;20.77;;;8.80;;
47669;SDS011;33408;52.062;11.722;2023-09-12T04:16:07;19.15;;;8.90;;
47669;SDS011;33408;52.062;11.722;2023-09-12T04:18:35;14.50;;;9.18;;
47669;SDS011;33408;52.062;11.722;2023-09-12T04:21:01;17.13;;;9.63;;
47669;SDS011;33408;52.062;11.722;2023-09-12T04:23:28;14.40;;;9.70;;
47669;SDS011;33408;52.062;11.722;2023-09-12T04:25:54;20.40;;;9.48;;
47669;SDS011;33408;52.062;11.722;2023-09-12T04:28:21;17.42;;;8.93;;
47669;SDS011;33408;52.062;11.722;2023-09-12T04:30:48;23.83;;;10.13;;
47669;SDS011;33408;52.062;11.722;2023-09-12T04:33:14;20.65;;;9.63;;
47669;SDS011;33408;52.062;11.722;2023-09-12T04:35:42;20.67;;;9.32;;
47669;SDS011;33408;52.062;11.722;2023-09-12T04:38:09;20.55;;;9.73;;
47669;SDS011;33408;52.062;11.722;2023-09-12T04:40:35;15.23;;;9.73;;
47669;SDS011;33408;52.062;11.722;2023-09-12T04:43:04;19.40;;;9.73;;
47669;SDS011;33408;52.062;11.722;2023-09-12T04:45:32;20.90;;;8.85;;
47669;SDS011;33408;52.062;11.722;2023-09-12T04:47:59;19.88;;;10.30;;
47669;SDS011;33408;52.062;11.722;2023-09-12T04:50:25;18.77;;;9.55;;
47669;SDS011;33408;52.062;11.722;2023-09-12T04:52:53;25.02;;;10.68;;
47669;SDS011;33408;52.062;11.722;2023-09-12T04:55:20;18.20;;;9.07;;
47669;SDS011;33408;52.062;11.722;2023-09-12T04:57:46;17.15;;;10.02;;
47669;SDS011;33408;52.062;11.722;2023-09-12T05:00:13;14.50;;;8.90;;
47669;SDS011;33408;52.062;11.722;2023-09-12T05:02:40;16.08;;;9.57;;
47669;SDS011;33408;52.062;11.722;2023-09-12T05:05:07;17.10;;;9.55;;
47669;SDS011;33408;52.062;11.722;2023-09-12T05:07:34;14.43;;;9.50;;
47669;SDS011;33408;52.062;11.722;2023-09-12T05:10:02;22.75;;;9.32;;
47669;SDS011;33408;52.062;11.722;2023-09-12T05:12:30;18.42;;;9.32;;
47669;SDS011;33408;52.062;11.722;2023-09-12T05:14:56;20.80;;;9.60;;
47669;SDS011;33408;52.062;11.722;2023-09-12T05:17:23;25.75;;;9.65;;
47669;SDS011;33408;52.062;11.722;2023-09-12T05:19:50;18.70;;;9.75;;
47669;SDS011;33408;52.062;11.722;2023-09-12T05:22:16;17.08;;;9.20;;
47669;SDS011;33408;52.062;11.722;2023-09-12T05:24:43;14.48;;;9.38;;
47669;SDS011;33408;52.062;11.722;2023-09-12T05:27:12;15.93;;;9.20;;
47669;SDS011;33408;52.062;11.722;2023-09-12T05:29:38;20.23;;;9.10;;
47669;SDS011;33408;52.062;11.722;2023-09-12T05:32:05;16.65;;;9.07;;
47669;SDS011;33408;52.062;11.722;2023-09-12T05:34:32;13.75;;;8.85;;
47669;SDS011;33408;52.062;11.722;2023-09-12T05:36:58;17.20;;;9.00;;
47669;SDS011;33408;52.062;11.722;2023-09-12T05:39:25;23.17;;;8.68;;
47669;SDS011;33408;52.062;11.722;2023-09-12T05:41:51;13.18;;;7.78;;
47669;SDS011;33408;52.062;11.722;2023-09-12T05:44:19;19.42;;;8.73;;
47669;SDS011;33408;52.062;11.722;2023-09-12T05:46:46;16.20;;;9.30;;
47669;SDS011;33408;52.062;11.722;2023-09-12T05:49:14;14.27;;;9.30;;
47669;SDS011;33408;52.062;11.722;2023-09-12T05:51:41;17.88;;;10.20;;
47669;SDS011;33408;52.062;11.722;2023-09-12T05:54:07;18.20;;;9.95;;
47669;SDS011;33408;52.062;11.722;2023-09-12T05:56:34;21.33;;;10.95;;
47669;SDS011;33408;52.062;11.722;2023-09-12T05:59:01;19.20;;;10.68;;
47669;SDS011;33408;52.062;11.722;2023-09-12T06:01:29;17.92;;;11.43;;
47669;SDS011;33408;52.062;11.722;2023-09-12T06:03:55;23.23;;;12.38;;
47669;SDS011;33408;52.062;11.722;2023-09-12T06:06:22;25.52;;;11.75;;
47669;SDS011;33408;52.062;11.722;2023-09-12T06:08:49;18.00;;;13.43;;
47669;SDS011;33408;52.062;11.722;2023-09-12T06:11:15;23.58;;;11.88;;
47669;SDS011;33408;52.062;11.722;2023-09-12T06:13:42;21.50;;;12.15;;
47669;SDS011;33408;52.062;11.722;2023-09-12T06:16:08;20.17;;;12.57;;
47669;SDS011;33408;52.062;11.722;2023-09-12T06:18:36;24.35;;;11.82;;
47669;SDS011;33408;52.062;11.722;2023-09-12T06:21:03;22.05;;;11.48;;
47669;SDS011;33408;52.062;11.722;2023-09-12T06:23:33;21.55;;;12.90;;
47669;SDS011;33408;52.062;11.722;2023-09-12T06:26:00;22.95;;;12.43;;
47669;SDS011;33408;52.062;11.722;2023-09-12T06:28:27;21.58;;;12.35;;
47669;SDS011;33408;52.062;11.722;2023-09-12T06:30:55;20.58;;;12.60;;
47669;SDS011;33408;52.062;11.722;2023-09-12T06:33:22;19.67;;;12.93;;
47669;SDS011;33408;52.062;11.722;2023-09-12T06:35:50;26.25;;;13.38;;
47669;SDS011;33408;52.062;11.722;2023-09-12T06:38:18;20.15;;;12.40;;
47669;SDS011;33408;52.062;11.722;2023-09-12T06:40:45;20.85;;;12.43;;
47669;SDS011;33408;52.062;11.722;2023-09-12T06:43:12;23.08;;;12.23;;
47669;SDS011;33408;52.062;11.722;2023-09-12T06:45:40;18.05;;;11.88;;
47669;SDS011;33408;52.062;11.722;2023-09-12T06:48:07;18.85;;;11.07;;
47669;SDS011;33408;52.062;11.722;2023-09-12T06:50:33;21.20;;;12.10;;
47669;SDS011;33408;52.062;11.722;2023-09-12T06:53:04;24.20;;;12.38;;
47669;SDS011;33408;52.062;11.722;2023-09-12T06:55:31;20.73;;;12.75;;
47669;SDS011;33408;52.062;11.722;2023-09-12T06:57:58;22.65;;;12.20;;
47669;SDS011;33408;52.062;11.722;2023-09-12T07:00:24;22.27;;;11.05;;
47669;SDS011;33408;52.062;11.722;2023-09-12T07:02:51;18.10;;;11.32;;
47669;SDS011;33408;52.062;11.722;2023-09-12T07:05:18;18.45;;;11.38;;
47669;SDS011;33408;52.062;11.722;2023-09-12T07:07:44;15.55;;;11.65;;
47669;SDS011;33408;52.062;11.722;2023-09-12T07:10:12;25.60;;;11.20;;
47669;SDS011;33408;52.062;11.722;2023-09-12T07:12:39;19.00;;;11.32;;
47669;SDS011;33408;52.062;11.722;2023-09-12T07:15:06;21.50;;;11.35;;
47669;SDS011;33408;52.062;11.722;2023-09-12T07:17:34;18.98;;;9.98;;
47669;SDS011;33408;52.062;11.722;2023-09-12T07:20:01;19.15;;;9.55;;
47669;SDS011;33408;52.062;11.722;2023-09-12T07:22:27;15.73;;;10.50;;
47669;SDS011;33408;52.062;11.722;2023-09-12T07:24:54;20.25;;;9.77;;
47669;SDS011;33408;52.062;11.722;2023-09-12T07:27:22;16.08;;;9.60;;
47669;SDS011;33408;52.062;11.722;2023-09-12T07:29:48;20.02;;;9.25;;
47669;SDS011;33408;52.062;11.722;2023-09-12T07:32:15;17.88;;;8.95;;
47669;SDS011;33408;52.062;11.722;2023-09-12T07:34:42;19.67;;;9.75;;
47669;SDS011;33408;52.062;11.722;2023-09-12T07:37:13;12.77;;;8.45;;
47669;SDS011;33408;52.062;11.722;2023-09-12T07:39:40;18.55;;;9.25;;
47669;SDS011;33408;52.062;11.722;2023-09-12T07:42:06;15.10;;;8.57;;
47669;SDS011;33408;52.062;11.722;2023-09-12T07:44:35;14.85;;;8.90;;
47669;SDS011;33408;52.062;11.722;2023-09-12T07:47:01;19.77;;;8.75;;
47669;SDS011;33408;52.062;11.722;2023-09-12T07:49:28;15.43;;;8.40;;
47669;SDS011;33408;52.062;11.722;2023-09-12T07:51:55;13.23;;;7.60;;
47669;SDS011;33408;52.062;11.722;2023-09-12T07:54:22;12.35;;;7.60;;
47669;SDS011;33408;52.062;11.722;2023-09-12T07:56:49;17.73;;;7.47;;
47669;SDS011;33408;52.062;11.722;2023-09-12T07:59:15;11.10;;;7.13;;
47669;SDS011;33408;52.062;11.722;2023-09-12T08:01:43;12.25;;;6.60;;
47669;SDS011;33408;52.062;11.722;2023-09-12T08:04:10;14.30;;;7.20;;
47669;SDS011;33408;52.062;11.722;2023-09-12T08:06:36;12.40;;;6.20;;
47669;SDS011;33408;52.062;11.722;2023-09-12T08:09:03;12.88;;;6.32;;
47669;SDS011;33408;52.062;11.722;2023-09-12T08:11:30;9.27;;;5.68;;
47669;SDS011;33408;52.062;11.722;2023-09-12T08:13:56;11.35;;;6.10;;
47669;SDS011;33408;52.062;11.722;2023-09-12T08:16:23;9.88;;;5.57;;
47669;SDS011;33408;52.062;11.722;2023-09-12T08:18:51;11.73;;;5.80;;
47669;SDS011;33408;52.062;11.722;2023-09-12T08:21:17;10.18;;;6.15;;
47669;SDS011;33408;52.062;11.722;2023-09-12T08:23:44;12.60;;;6.50;;
47669;SDS011;33408;52.062;11.722;2023-09-12T08:26:10;12.23;;;6.28;;
47669;SDS011;33408;52.062;11.722;2023-09-12T08:28:37;12.57;;;5.95;;
47669;SDS011;33408;52.062;11.722;2023-09-12T08:31:04;10.15;;;4.70;;
47669;SDS011;33408;52.062;11.722;2023-09-12T08:33:30;11.20;;;4.45;;
47669;SDS011;33408;52.062;11.722;2023-09-12T08:35:59;8.95;;;4.75;;
47669;SDS011;33408;52.062;11.722;2023-09-12T08:38:25;7.88;;;3.95;;
47669;SDS011;33408;52.062;11.722;2023-09-12T08:40:52;9.68;;;4.75;;
47669;SDS011;33408;52.062;11.722;2023-09-12T08:43:19;7.78;;;3.97;;
47669;SDS011;33408;52.062;11.722;2023-09-12T08:45:46;10.27;;;4.50;;
47669;SDS011;33408;52.062;11.722;2023-09-12T08:48:13;10.15;;;4.22;;
47669;SDS011;33408;52.062;11.722;2023-09-12T08:50:41;9.60;;;3.60;;
47669;SDS011;33408;52.062;11.722;2023-09-12T08:53:10;7.90;;;4.60;;
47669;SDS011;33408;52.062;11.722;2023-09-12T08:55:37;6.75;;;3.88;;
47669;SDS011;33408;52.062;11.722;2023-09-12T08:58:04;7.57;;;4.07;;
47669;SDS011;33408;52.062;11.722;2023-09-12T09:00:31;8.13;;;4.10;;
47669;SDS011;33408;52.062;11.722;2023-09-12T09:02:58;6.45;;;3.78;;
47669;SDS011;33408;52.062;11.722;2023-09-12T09:05:25;7.93;;;3.58;;
47669;SDS011;33408;52.062;11.722;2023-09-12T09:07:53;6.47;;;3.70;;
47669;SDS011;33408;52.062;11.722;2023-09-12T09:10:22;7.97;;;3.50;;
47669;SDS011;33408;52.062;11.722;2023-09-12T09:12:49;8.32;;;3.13;;
47669;SDS011;33408;52.062;11.722;2023-09-12T09:15:22;7.78;;;3.78;;
47669;SDS011;33408;52.062;11.722;2023-09-12T09:17:51;9.55;;;3.15;;
47669;SDS011;33408;52.062;11.722;2023-09-12T09:20:22;7.88;;;3.22;;
47669;SDS011;33408;52.062;11.722;2023-09-12T09:22:58;6.55;;;3.55;;
47669;SDS011;33408;52.062;11.722;2023-09-12T09:25:27;7.60;;;3.78;;
47669;SDS011;33408;52.062;11.722;2023-09-12T09:27:54;6.65;;;3.35;;
47669;SDS011;33408;52.062;11.722;2023-09-12T09:30:37;7.28;;;3.35;;
47669;SDS011;33408;52.062;11.722;2023-09-12T09:33:06;7.63;;;3.72;;
47669;SDS011;33408;52.062;11.722;2023-09-12T09:35:34;7.43;;;3.47;;
47669;SDS011;33408;52.062;11.722;2023-09-12T09:38:01;5.03;;;2.80;;
47669;SDS011;33408;52.062;11.722;2023-09-12T09:40:29;7.20;;;3.33;;
47669;SDS011;33408;52.062;11.722;2023-09-12T09:42:59;6.43;;;3.00;;
47669;SDS011;33408;52.062;11.722;2023-09-12T09:45:26;8.55;;;2.95;;
47669;SDS011;33408;52.062;11.722;2023-09-12T09:47:56;5.03;;;2.90;;
47669;SDS011;33408;52.062;11.722;2023-09-12T09:50:23;8.15;;;3.25;;
47669;SDS011;33408;52.062;11.722;2023-09-12T09:52:53;7.18;;;3.20;;
47669;SDS011;33408;52.062;11.722;2023-09-12T09:55:21;7.38;;;2.50;;
47669;SDS011;33408;52.062;11.722;2023-09-12T09:57:49;5.03;;;2.75;;
47669;SDS011;33408;52.062;11.722;2023-09-12T10:00:17;8.48;;;2.80;;
47669;SDS011;33408;52.062;11.722;2023-09-12T10:02:45;6.68;;;2.70;;
47669;SDS011;33408;52.062;11.722;2023-09-12T10:05:15;6.32;;;2.50;;
47669;SDS011;33408;52.062;11.722;2023-09-12T10:07:43;6.80;;;2.50;;
47669;SDS011;33408;52.062;11.722;2023-09-12T10:10:13;6.47;;;2.55;;
47669;SDS011;33408;52.062;11.722;2023-09-12T10:12:41;8.75;;;2.70;;
47669;SDS011;33408;52.062;11.722;2023-09-12T10:15:14;7.47;;;2.15;;
47669;SDS011;33408;52.062;11.722;2023-09-12T10:17:43;5.45;;;2.97;;
47669;SDS011;33408;52.062;11.722;2023-09-12T10:20:14;6.75;;;2.15;;
47669;SDS011;33408;52.062;11.722;2023-09-12T10:22:45;7.10;;;2.30;;
47669;SDS011;33408;52.062;11.722;2023-09-12T10:25:17;6.10;;;2.30;;
47669;SDS011;33408;52.062;11.722;2023-09-12T10:27:44;6.85;;;2.10;;
47669;SDS011;33408;52.062;11.722;2023-09-12T10:30:12;5.50;;;1.92;;
47669;SDS011;33408;52.062;11.722;2023-09-12T10:32:40;6.47;;;2.63;;
47669;SDS011;33408;52.062;11.722;2023-09-12T10:35:11;6.93;;;2.30;;
47669;SDS011;33408;52.062;11.722;2023-09-12T10:37:38;6.32;;;2.63;;
47669;SDS011;33408;52.062;11.722;2023-09-12T10:40:08;4.30;;;2.25;;
47669;SDS011;33408;52.062;11.722;2023-09-12T10:42:37;7.93;;;2.38;;
47669;SDS011;33408;52.062;11.722;2023-09-12T10:45:05;7.05;;;2.78;;
47669;SDS011;33408;52.062;11.722;2023-09-12T10:47:33;6.45;;;2.40;;
47669;SDS011;33408;52.062;11.722;2023-09-12T10:50:02;6.72;;;2.33;;
47669;SDS011;33408;52.062;11.722;2023-09-12T10:52:29;7.50;;;3.22;;
47669;SDS011;33408;52.062;11.722;2023-09-12T10:54:56;5.50;;;2.60;;
47669;SDS011;33408;52.062;11.722;2023-09-12T10:57:22;7.65;;;3.17;;
47669;SDS011;33408;52.062;11.722;2023-09-12T11:02:37;5.30;;;2.72;;
47669;SDS011;33408;52.062;11.722;2023-09-12T11:05:07;7.05;;;3.13;;
47669;SDS011;33408;52.062;11.722;2023-09-12T11:08:03;9.98;;;3.20;;
47669;SDS011;33408;52.062;11.722;2023-09-12T11:10:30;11.00;;;3.33;;
47669;SDS011;33408;52.062;11.722;2023-09-12T11:12:57;8.48;;;3.22;;
47669;SDS011;33408;52.062;11.722;2023-09-12T11:15:25;7.25;;;2.80;;
47669;SDS011;33408;52.062;11.722;2023-09-12T11:17:59;8.70;;;3.03;;
47669;SDS011;33408;52.062;11.722;2023-09-12T11:20:48;7.18;;;3.05;;
47669;SDS011;33408;52.062;11.722;2023-09-12T11:23:17;7.70;;;3.25;;
47669;SDS011;33408;52.062;11.722;2023-09-12T11:25:44;5.47;;;3.08;;
47669;SDS011;33408;52.062;11.722;2023-09-12T11:28:10;8.25;;;3.10;;
47669;SDS011;33408;52.062;11.722;2023-09-12T11:30:37;7.95;;;3.03;;
47669;SDS011;33408;52.062;11.722;2023-09-12T11:33:21;7.65;;;2.80;;
47669;SDS011;33408;52.062;11.722;2023-09-12T11:35:52;8.00;;;3.00;;
47669;SDS011;33408;52.062;11.722;2023-09-12T11:38:26;9.45;;;3.20;;
47669;SDS011;33408;52.062;11.722;2023-09-12T11:40:54;9.23;;;2.97;;
47669;SDS011;33408;52.062;11.722;2023-09-12T11:43:21;7.72;;;3.03;;
47669;SDS011;33408;52.062;11.722;2023-09-12T11:45:51;9.48;;;3.33;;
47669;SDS011;33408;52.062;11.722;2023-09-12T11:48:18;7.82;;;3.50;;
47669;SDS011;33408;52.062;11.722;2023-09-12T11:50:49;8.15;;;3.13;;
47669;SDS011;33408;52.062;11.722;2023-09-12T11:53:19;6.40;;;2.85;;
47669;SDS011;33408;52.062;11.722;2023-09-12T11:55:48;8.67;;;3.27;;
47669;SDS011;33408;52.062;11.722;2023-09-12T11:58:17;7.63;;;2.97;;
47669;SDS011;33408;52.062;11.722;2023-09-12T12:00:44;4.75;;;2.67;;
47669;SDS011;33408;52.062;11.722;2023-09-12T12:03:13;9.35;;;2.75;;
47669;SDS011;33408;52.062;11.722;2023-09-12T12:05:40;5.63;;;2.47;;
47669;SDS011;33408;52.062;11.722;2023-09-12T12:08:07;5.80;;;2.63;;
47669;SDS011;33408;52.062;11.722;2023-09-12T12:10:35;6.95;;;2.60;;
47669;SDS011;33408;52.062;11.722;2023-09-12T12:13:03;5.47;;;2.35;;
47669;SDS011;33408;52.062;11.722;2023-09-12T12:15:30;6.80;;;2.67;;
47669;SDS011;33408;52.062;11.722;2023-09-12T12:17:57;9.93;;;2.83;;
47669;SDS011;33408;52.062;11.722;2023-09-12T12:20:24;7.07;;;2.38;;
47669;SDS011;33408;52.062;11.722;2023-09-12T12:22:53;5.00;;;2.13;;
47669;SDS011;33408;52.062;11.722;2023-09-12T12:25:19;6.90;;;2.38;;
47669;SDS011;33408;52.062;11.722;2023-09-12T12:27:49;11.43;;;3.20;;
47669;SDS011;33408;52.062;11.722;2023-09-12T12:30:15;7.47;;;2.83;;
47669;SDS011;33408;52.062;11.722;2023-09-12T12:32:45;6.35;;;2.55;;
47669;SDS011;33408;52.062;11.722;2023-09-12T12:35:16;7.40;;;2.85;;
47669;SDS011;33408;52.062;11.722;2023-09-12T12:37:44;5.78;;;2.30;;
47669;SDS011;33408;52.062;11.722;2023-09-12T12:40:11;5.03;;;2.40;;
47669;SDS011;33408;52.062;11.722;2023-09-12T12:42:39;5.93;;;2.25;;
47669;SDS011;33408;52.062;11.722;2023-09-12T12:45:12;5.20;;;2.10;;
47669;SDS011;33408;52.062;11.722;2023-09-12T12:47:40;5.38;;;2.42;;
47669;SDS011;33408;52.062;11.722;2023-09-12T12:50:08;11.07;;;3.08;;
47669;SDS011;33408;52.062;11.722;2023-09-12T12:52:36;8.88;;;2.58;;
47669;SDS011;33408;52.062;11.722;2023-09-12T12:55:04;9.23;;;2.80;;
47669;SDS011;33408;52.062;11.722;2023-09-12T12:57:31;8.57;;;2.97;;
47669;SDS011;33408;52.062;11.722;2023-09-12T12:59:58;6.25;;;2.35;;
47669;SDS011;33408;52.062;11.722;2023-09-12T13:02:28;6.07;;;2.85;;
47669;SDS011;33408;52.062;11.722;2023-09-12T13:04:56;5.65;;;2.95;;
47669;SDS011;33408;52.062;11.722;2023-09-12T13:07:23;7.25;;;2.75;;
47669;SDS011;33408;52.062;11.722;2023-09-12T13:09:50;5.88;;;2.60;;
47669;SDS011;33408;52.062;11.722;2023-09-12T13:12:16;5.40;;;2.65;;
47669;SDS011;33408;52.062;11.722;2023-09-12T13:14:43;8.25;;;2.72;;
47669;SDS011;33408;52.062;11.722;2023-09-12T13:17:10;5.28;;;2.55;;
47669;SDS011;33408;52.062;11.722;2023-09-12T13:19:38;5.40;;;2.85;;
47669;SDS011;33408;52.062;11.722;2023-09-12T13:22:07;6.68;;;2.88;;
47669;SDS011;33408;52.062;11.722;2023-09-12T13:24:34;6.30;;;2.88;;
47669;SDS011;33408;52.062;11.722;2023-09-12T13:27:01;5.55;;;2.80;;
47669;SDS011;33408;52.062;11.722;2023-09-12T13:29:27;6.60;;;2.78;;
47669;SDS011;33408;52.062;11.722;2023-09-12T13:31:54;5.03;;;2.33;;
47669;SDS011;33408;52.062;11.722;2023-09-12T13:34:20;7.30;;;2.60;;
47669;SDS011;33408;52.062;11.722;2023-09-12T13:36:49;6.03;;;2.50;;
47669;SDS011;33408;52.062;11.722;2023-09-12T13:39:15;5.72;;;2.08;;
47669;SDS011;33408;52.062;11.722;2023-09-12T13:41:45;5.88;;;2.33;;
47669;SDS011;33408;52.062;11.722;2023-09-12T13:44:11;8.50;;;2.25;;
47669;SDS011;33408;52.062;11.722;2023-09-12T13:46:39;4.63;;;2.30;;
47669;SDS011;33408;52.062;11.722;2023-09-12T13:49:09;5.18;;;1.92;;
47669;SDS011;33408;52.062;11.722;2023-09-12T13:51:35;4.93;;;1.75;;
47669;SDS011;33408;52.062;11.722;2023-09-12T13:54:04;4.20;;;1.90;;
47669;SDS011;33408;52.062;11.722;2023-09-12T13:56:31;8.15;;;1.88;;
47669;SDS011;33408;52.062;11.722;2023-09-12T13:59:00;7.78;;;1.70;;
47669;SDS011;33408;52.062;11.722;2023-09-12T14:01:30;5.25;;;1.48;;
47669;SDS011;33408;52.062;11.722;2023-09-12T14:03:57;3.58;;;1.33;;
47669;SDS011;33408;52.062;11.722;2023-09-12T14:06:23;3.95;;;1.50;;
47669;SDS011;33408;52.062;11.722;2023-09-12T14:08:50;6.43;;;1.50;;
47669;SDS011;33408;52.062;11.722;2023-09-12T14:11:19;5.05;;;1.60;;
47669;SDS011;33408;52.062;11.722;2023-09-12T14:13:45;3.40;;;1.70;;
47669;SDS011;33408;52.062;11.722;2023-09-12T14:16:12;3.75;;;1.48;;
47669;SDS011;33408;52.062;11.722;2023-09-12T14:18:39;3.97;;;1.50;;
47669;SDS011;33408;52.062;11.722;2023-09-12T14:21:05;2.88;;;1.38;;
47669;SDS011;33408;52.062;11.722;2023-09-12T14:23:32;1.45;;;1.00;;
47669;SDS011;33408;52.062;11.722;2023-09-12T14:25:58;2.78;;;1.35;;
47669;SDS011;33408;52.062;11.722;2023-09-12T14:28:26;5.18;;;1.60;;
47669;SDS011;33408;52.062;11.722;2023-09-12T14:30:53;3.13;;;1.40;;
47669;SDS011;33408;52.062;11.722;2023-09-12T14:33:20;3.97;;;1.33;;
47669;SDS011;33408;52.062;11.722;2023-09-12T14:35:47;4.97;;;1.50;;
47669;SDS011;33408;52.062;11.722;2023-09-12T14:38:13;4.63;;;1.92;;